Time;durP1;ratioP1;P1;durP2;ratioP2;P2;SDS_P1;SDS_P2;PMS_P1;PMS_P2;Temp;Humidity;BMP_temperature;BMP_pressure;BME280_temperature;BME280_humidity;BME280_pressure;Samples;Min_cycle;Max_cycle;Signal;HPM_P1;HPM_P2
2022/07/26 00:01:04;;;;;;;;;;;;;;;;;;5984615;24;9193;-85
2022/07/26 00:03:30;;;;;;;;;;;;;;;;;;6031092;23;8700;-87
2022/07/26 00:05:55;;;;;;;;;;;;;;;;;;5984037;24;8394;-86
2022/07/26 00:08:21;;;;;;;;;;;;;;;;;;5984296;24;8490;-82
2022/07/26 00:10:48;;;;;;;;;;;;;;;;;;5984038;24;8409;-86
2022/07/26 00:13:16;;;;;;;;;;;;;;;;;;5984301;24;7356;-86
2022/07/26 00:15:42;;;;;;;;;;;;;;;;;;5984171;24;7113;-85
2022/07/26 00:18:08;;;;;;;;;;;;;;;;;;5984770;24;9153;-86
2022/07/26 00:20:34;;;;;;;;;;;;;;;;;;5984118;24;7135;-86
2022/07/26 00:23:00;;;;;;;;;;;;;;;;;;5983931;24;8384;-85
2022/07/26 00:25:25;;;;;;;;;;;;;;;;;;5984684;24;8447;-87
2022/07/26 00:27:51;;;;;;;;;;;;;;;;;;5984369;24;7223;-85
2022/07/26 00:30:16;;;;;;;;;;;;;;;;;;5984775;24;8255;-84
2022/07/26 00:32:42;;;;;;;;;;;;;;;;;;5985535;24;8511;-82
2022/07/26 00:35:08;;;;;;;;;;;;;;;;;;5985083;24;8769;-83
2022/07/26 00:37:34;;;;;;;;;;;;;;;;;;5986380;24;7154;-87
2022/07/26 00:39:59;;;;;;;;;;;;;;;;;;5986459;24;7204;-86
2022/07/26 00:42:25;;;;;;;;;;;;;;;;;;5987652;24;8381;-84
2022/07/26 00:44:50;;;;;;;;;;;;;;;;;;5986376;24;7132;-86
2022/07/26 00:47:16;;;;;;;;;;;;;;;;;;5984459;24;8394;-86
2022/07/26 00:49:42;;;;;;;;;;;;;;;;;;6007538;23;8350;-86
2022/07/26 00:52:09;;;;;;;;;;;;;;;;;;5984373;24;8421;-87
2022/07/26 00:54:35;;;;;;;;;;;;;;;;;;6008441;23;7008;-86
2022/07/26 00:57:01;;;;;;;;;;;;;;;;;;5985043;24;7557;-86
2022/07/26 00:59:27;;;;;;;;;;;;;;;;;;5984387;24;7136;-86
2022/07/26 01:01:53;;;;;;;;;;;;;;;;;;5984381;24;9592;-86
2022/07/26 01:04:19;;;;;;;;;;;;;;;;;;5983754;24;7055;-87
2022/07/26 01:06:47;;;;;;;;;;;;;;;;;;5984090;24;8475;-85
2022/07/26 01:09:13;;;;;;;;;;;;;;;;;;5984412;24;8630;-88
2022/07/26 01:11:38;;;;;;;;;;;;;;;;;;5984164;24;8583;-85
2022/07/26 01:14:04;;;;;;;;;;;;;;;;;;5983735;24;6964;-86
2022/07/26 01:16:30;;;;;;;;;;;;;;;;;;5984771;24;7163;-85
2022/07/26 01:18:55;;;;;;;;;;;;;;;;;;5985711;24;8515;-86
2022/07/26 01:21:21;;;;;;;;;;;;;;;;;;5985479;24;7387;-84
2022/07/26 01:23:46;;;;;;;;;;;;;;;;;;5986199;24;8523;-85
2022/07/26 01:26:12;;;;;;;;;;;;;;;;;;5985489;24;8739;-85
2022/07/26 01:28:39;;;;;;;;;;;;;;;;;;5985617;24;8381;-86
2022/07/26 01:31:05;;;;;;;;;;;;;;;;;;5985499;24;7020;-85
2022/07/26 01:33:32;;;;;;;;;;;;;;;;;;5985839;24;8340;-85
2022/07/26 01:35:58;;;;;;;;;;;;;;;;;;5985574;24;8408;-85
2022/07/26 01:38:25;;;;;;;;;;;;;;;;;;5985362;24;7022;-85
2022/07/26 01:40:50;;;;;;;;;;;;;;;;;;5985565;24;8794;-83
2022/07/26 01:43:16;;;;;;;;;;;;;;;;;;5985316;24;8778;-85
2022/07/26 01:45:41;;;;;;;;;;;;;;;;;;5986152;24;8378;-84
2022/07/26 01:48:07;;;;;;;;;;;;;;;;;;5985295;24;8604;-85
2022/07/26 01:50:34;;;;;;;;;;;;;;;;;;5985665;24;8403;-88
2022/07/26 01:52:59;;;;;;;;;;;;;;;;;;5985715;24;8785;-84
2022/07/26 01:55:25;;;;;;;;;;;;;;;;;;5985942;24;7105;-84
2022/07/26 01:57:50;;;;;;;;;;;;;;;;;;5985923;24;8888;-84
2022/07/26 02:00:16;;;;;;;;;;;;;;;;;;5985511;24;7381;-86
2022/07/26 02:02:41;;;;;;;;;;;;;;;;;;5986146;24;8788;-86
2022/07/26 02:05:07;;;;;;;;;;;;;;;;;;5984940;24;8440;-85
2022/07/26 02:07:38;;;;;;;;;;;;;;;;;;6032456;23;7018;-86
2022/07/26 02:10:06;;;;;;;;;;;;;;;;;;6009146;23;7153;-84
2022/07/26 02:12:32;;;;;;;;;;;;;;;;;;6032401;23;7405;-85
2022/07/26 02:14:57;;;;;;;;;;;;;;;;;;5986002;24;6957;-86
2022/07/26 02:17:23;;;;;;;;;;;;;;;;;;5985190;24;7016;-85
2022/07/26 02:19:49;;;;;;;;;;;;;;;;;;5985289;24;8402;-86
2022/07/26 02:22:15;;;;;;;;;;;;;;;;;;5985058;24;7240;-84
2022/07/26 02:24:40;;;;;;;;;;;;;;;;;;5985291;24;8411;-85
2022/07/26 02:27:06;;;;;;;;;;;;;;;;;;5985571;24;8544;-84
2022/07/26 02:29:32;;;;;;;;;;;;;;;;;;5985579;24;8603;-83
2022/07/26 02:31:58;;;;;;;;;;;;;;;;;;5985358;24;8455;-85
2022/07/26 02:34:23;;;;;;;;;;;;;;;;;;5985051;24;8385;-86
2022/07/26 02:36:49;;;;;;;;;;;;;;;;;;5985419;24;8426;-86
2022/07/26 02:39:14;;;;;;;;;;;;;;;;;;5985345;24;8427;-86
2022/07/26 02:41:40;;;;;;;;;;;;;;;;;;5984909;24;7142;-86
2022/07/26 02:44:08;;;;;;;;;;;;;;;;;;5984941;24;7005;-85
2022/07/26 02:46:34;;;;;;;;;;;;;;;;;;5985262;24;7126;-85
2022/07/26 02:48:59;;;;;;;;;;;;;;;;;;5985094;24;7131;-86
2022/07/26 02:51:25;;;;;;;;;;;;;;;;;;5984844;24;8399;-86
2022/07/26 02:53:52;;;;;;;;;;;;;;;;;;5985767;24;7035;-85
2022/07/26 02:56:18;;;;;;;;;;;;;;;;;;5984731;24;7023;-85
2022/07/26 02:58:44;;;;;;;;;;;;;;;;;;5985251;24;8374;-86
2022/07/26 03:01:09;;;;;;;;;;;;;;;;;;5984823;24;8402;-85
2022/07/26 03:03:35;;;;;;;;;;;;;;;;;;6008827;23;8632;-86
2022/07/26 03:06:01;;;;;;;;;;;;;;;;;;5984709;24;7124;-85
2022/07/26 03:08:26;;;;;;;;;;;;;;;;;;6032614;23;7010;-86
2022/07/26 03:10:52;;;;;;;;;;;;;;;;;;5985253;24;9086;-85
2022/07/26 03:13:17;;;;;;;;;;;;;;;;;;5984794;24;7026;-86
2022/07/26 03:15:43;;;;;;;;;;;;;;;;;;5984933;24;8625;-85
2022/07/26 03:18:09;;;;;;;;;;;;;;;;;;5984951;24;7065;-85
2022/07/26 03:20:34;;;;;;;;;;;;;;;;;;5984268;24;8594;-85
2022/07/26 03:22:59;;;;;;;;;;;;;;;;;;5985038;24;8886;-83
2022/07/26 03:25:25;;;;;;;;;;;;;;;;;;5984494;24;8734;-84
2022/07/26 03:27:53;;;;;;;;;;;;;;;;;;5985291;24;8347;-83
2022/07/26 03:30:19;;;;;;;;;;;;;;;;;;5984796;24;8549;-85
2022/07/26 03:32:44;;;;;;;;;;;;;;;;;;5984943;24;8415;-86
2022/07/26 03:35:09;;;;;;;;;;;;;;;;;;5984923;24;8608;-84
2022/07/26 03:37:35;;;;;;;;;;;;;;;;;;5984390;24;7122;-84
2022/07/26 03:40:00;;;;;;;;;;;;;;;;;;5984380;24;7049;-87
2022/07/26 03:42:26;;;;;;;;;;;;;;;;;;5984880;24;8597;-85
2022/07/26 03:44:51;;;;;;;;;;;;;;;;;;5984345;24;8494;-86
2022/07/26 03:47:16;;;;;;;;;;;;;;;;;;5985314;24;8357;-83
2022/07/26 03:49:42;;;;;;;;;;;;;;;;;;5984964;24;8382;-85
2022/07/26 03:52:09;;;;;;;;;;;;;;;;;;5984307;24;8357;-84
2022/07/26 03:54:35;;;;;;;;;;;;;;;;;;5984387;24;7475;-86
2022/07/26 03:57:00;;;;;;;;;;;;;;;;;;5984933;24;8385;-85
2022/07/26 03:59:26;;;;;;;;;;;;;;;;;;5985176;24;7373;-85
2022/07/26 04:01:52;;;;;;;;;;;;;;;;;;5984661;24;8507;-82
2022/07/26 04:04:17;;;;;;;;;;;;;;;;;;5986442;24;8395;-84
2022/07/26 04:06:44;;;;;;;;;;;;;;;;;;5984450;24;7134;-86
2022/07/26 04:09:11;;;;;;;;;;;;;;;;;;5984948;24;8388;-86
2022/07/26 04:11:36;;;;;;;;;;;;;;;;;;6031863;23;8771;-85
2022/07/26 04:14:03;;;;;;;;;;;;;;;;;;5984807;24;8575;-84
2022/07/26 04:16:28;;;;;;;;;;;;;;;;;;5984724;24;7235;-85
2022/07/26 04:18:54;;;;;;;;;;;;;;;;;;5984397;24;8410;-85
2022/07/26 04:21:19;;;;;;;;;;;;;;;;;;5984744;24;8499;-86
2022/07/26 04:23:45;;;;;;;;;;;;;;;;;;5982794;24;8417;-85
2022/07/26 04:26:12;;;;;;;;;;;;;;;;;;5983319;24;8337;-83
2022/07/26 04:28:37;;;;;;;;;;;;;;;;;;5982744;24;8792;-84
2022/07/26 04:31:03;;;;;;;;;;;;;;;;;;5983443;24;7407;-81
2022/07/26 04:33:28;;;;;;;;;;;;;;;;;;5983395;24;7578;-84
2022/07/26 04:35:54;;;;;;;;;;;;;;;;;;5983015;24;8779;-85
2022/07/26 04:38:19;;;;;;;;;;;;;;;;;;5982914;24;8444;-85
2022/07/26 04:40:45;;;;;;;;;;;;;;;;;;5983062;24;8470;-85
2022/07/26 04:43:10;;;;;;;;;;;;;;;;;;5982546;24;8402;-84
2022/07/26 04:45:36;;;;;;;;;;;;;;;;;;5982499;24;8437;-85
2022/07/26 04:48:01;;;;;;;;;;;;;;;;;;5982714;24;7183;-82
2022/07/26 04:50:27;;;;;;;;;;;;;;;;;;5982517;24;7131;-82
2022/07/26 04:52:54;;;;;;;;;;;;;;;;;;5984787;24;8414;-81
2022/07/26 04:55:20;;;;;;;;;;;;;;;;;;5984899;24;7264;-82
2022/07/26 04:57:46;;;;;;;;;;;;;;;;;;5985114;24;7155;-81
2022/07/26 05:00:13;;;;;;;;;;;;;;;;;;5984901;24;8467;-82
2022/07/26 05:02:39;;;;;;;;;;;;;;;;;;5984952;24;8614;-81
2022/07/26 05:05:06;;;;;;;;;;;;;;;;;;5984803;24;8470;-81
2022/07/26 05:07:40;;;;;;;;;;;;;;;;;;5984793;24;7026;-82
2022/07/26 05:10:06;;;;;;;;;;;;;;;;;;6007889;23;8427;-81
2022/07/26 05:12:31;;;;;;;;;;;;;;;;;;6031466;23;8494;-82
2022/07/26 05:14:57;;;;;;;;;;;;;;;;;;5984495;24;7186;-81
2022/07/26 05:17:22;;;;;;;;;;;;;;;;;;5980015;24;7337;-84
2022/07/26 05:19:48;;;;;;;;;;;;;;;;;;5983827;24;7121;-80
2022/07/26 05:22:13;;;;;;;;;;;;;;;;;;5983878;24;8336;-79
2022/07/26 05:24:38;;;;;;;;;;;;;;;;;;5983767;24;7008;-81
2022/07/26 05:27:04;;;;;;;;;;;;;;;;;;5983127;24;7014;-79
2022/07/26 05:29:29;;;;;;;;;;;;;;;;;;5983337;24;8719;-79
2022/07/26 05:31:55;;;;;;;;;;;;;;;;;;5984826;24;8452;-80
2022/07/26 05:34:21;;;;;;;;;;;;;;;;;;5984315;24;8388;-79
2022/07/26 05:36:47;;;;;;;;;;;;;;;;;;5982539;24;7121;-79
2022/07/26 05:39:12;;;;;;;;;;;;;;;;;;5983298;24;8350;-83
2022/07/26 05:41:38;;;;;;;;;;;;;;;;;;5982731;24;7336;-78
2022/07/26 05:44:03;;;;;;;;;;;;;;;;;;5983270;24;8545;-79
2022/07/26 05:46:29;;;;;;;;;;;;;;;;;;5983757;24;7023;-78
2022/07/26 05:48:54;;;;;;;;;;;;;;;;;;5984269;24;8440;-79
2022/07/26 05:51:19;;;;;;;;;;;;;;;;;;5983941;24;7621;-78
2022/07/26 05:53:45;;;;;;;;;;;;;;;;;;5983807;24;8359;-79
2022/07/26 05:56:10;;;;;;;;;;;;;;;;;;5983627;24;8856;-78
2022/07/26 05:58:35;;;;;;;;;;;;;;;;;;5983639;24;8345;-78
2022/07/26 06:01:01;;;;;;;;;;;;;;;;;;5984078;24;8523;-78
2022/07/26 06:03:27;;;;;;;;;;;;;;;;;;5984301;24;8425;-78
2022/07/26 06:05:55;;;;;;;;;;;;;;;;;;5983854;24;8374;-82
2022/07/26 06:08:21;;;;;;;;;;;;;;;;;;5983839;24;7041;-81
2022/07/26 06:10:47;;;;;;;;;;;;;;;;;;5984040;24;9454;-79
2022/07/26 06:13:13;;;;;;;;;;;;;;;;;;5984172;24;8523;-78
2022/07/26 06:15:38;;;;;;;;;;;;;;;;;;5983960;24;8666;-78
2022/07/26 06:18:05;;;;;;;;;;;;;;;;;;5984171;24;8650;-79
2022/07/26 06:20:31;;;;;;;;;;;;;;;;;;5983614;24;8597;-79
2022/07/26 06:22:57;;;;;;;;;;;;;;;;;;5984110;24;7052;-79
2022/07/26 06:25:23;;;;;;;;;;;;;;;;;;5983481;24;7391;-78
2022/07/26 06:27:49;;;;;;;;;;;;;;;;;;5984151;24;7382;-80
2022/07/26 06:30:14;;;;;;;;;;;;;;;;;;5983800;24;7377;-79
2022/07/26 06:32:43;;;;;;;;;;;;;;;;;;5984057;24;8679;-80
2022/07/26 06:35:13;;;;;;;;;;;;;;;;;;5983994;24;8448;-79
2022/07/26 06:37:39;;;;;;;;;;;;;;;;;;5983673;24;8466;-80
2022/07/26 06:40:06;;;;;;;;;;;;;;;;;;5984101;24;7273;-79
2022/07/26 06:42:32;;;;;;;;;;;;;;;;;;6031104;23;7219;-80
2022/07/26 06:44:58;;;;;;;;;;;;;;;;;;5983790;24;8611;-79
2022/07/26 06:47:24;;;;;;;;;;;;;;;;;;5984567;24;7156;-80
2022/07/26 06:49:49;;;;;;;;;;;;;;;;;;5984935;24;7013;-80
2022/07/26 06:52:14;;;;;;;;;;;;;;;;;;5984148;24;7192;-80
2022/07/26 06:54:40;;;;;;;;;;;;;;;;;;5983796;24;8412;-80
2022/07/26 06:57:05;;;;;;;;;;;;;;;;;;5984509;24;8366;-80
2022/07/26 06:59:31;;;;;;;;;;;;;;;;;;5984997;24;8465;-80
2022/07/26 07:01:56;;;;;;;;;;;;;;;;;;5984744;24;8273;-79
2022/07/26 07:04:22;;;;;;;;;;;;;;;;;;5984034;24;8402;-79
2022/07/26 07:06:47;;;;;;;;;;;;;;;;;;5983111;24;7302;-79
2022/07/26 07:09:13;;;;;;;;;;;;;;;;;;5982331;24;8723;-79
2022/07/26 07:11:38;;;;;;;;;;;;;;;;;;5982131;24;8602;-80
2022/07/26 07:14:03;;;;;;;;;;;;;;;;;;5983493;24;8676;-81
2022/07/26 07:16:29;;;;;;;;;;;;;;;;;;5982517;24;8327;-78
2022/07/26 07:18:54;;;;;;;;;;;;;;;;;;5983276;24;7008;-81
2022/07/26 07:21:20;;;;;;;;;;;;;;;;;;5984770;24;7099;-83
2022/07/26 07:23:45;;;;;;;;;;;;;;;;;;5984866;24;8581;-83
2022/07/26 07:26:11;;;;;;;;;;;;;;;;;;5984922;24;8394;-83
2022/07/26 07:28:39;;;;;;;;;;;;;;;;;;5984369;24;8613;-84
2022/07/26 07:31:05;;;;;;;;;;;;;;;;;;5984205;24;7058;-84
2022/07/26 07:33:30;;;;;;;;;;;;;;;;;;5983834;24;8562;-80
2022/07/26 07:35:56;;;;;;;;;;;;;;;;;;5982731;24;8435;-79
2022/07/26 07:38:21;;;;;;;;;;;;;;;;;;5984053;24;8349;-80
2022/07/26 07:40:47;;;;;;;;;;;;;;;;;;5983068;24;7128;-80
2022/07/26 07:43:12;;;;;;;;;;;;;;;;;;5983086;24;8657;-80
2022/07/26 07:45:38;;;;;;;;;;;;;;;;;;5981789;24;7333;-79
2022/07/26 07:48:04;;;;;;;;;;;;;;;;;;5983541;24;8363;-79
2022/07/26 07:50:29;;;;;;;;;;;;;;;;;;5982743;24;7290;-80
2022/07/26 07:52:55;;;;;;;;;;;;;;;;;;5984445;24;8516;-81
2022/07/26 07:55:21;;;;;;;;;;;;;;;;;;5984140;24;8771;-80
2022/07/26 07:57:46;;;;;;;;;;;;;;;;;;5984094;24;8425;-81
2022/07/26 08:00:14;;;;;;;;;;;;;;;;;;5983845;24;8307;-81
2022/07/26 08:02:40;;;;;;;;;;;;;;;;;;6031417;23;7208;-80
2022/07/26 08:05:08;;;;;;;;;;;;;;;;;;5983991;24;9491;-81
2022/07/26 08:07:33;;;;;;;;;;;;;;;;;;6031220;23;7410;-80
2022/07/26 08:09:59;;;;;;;;;;;;;;;;;;5984553;24;8387;-83
2022/07/26 08:12:24;;;;;;;;;;;;;;;;;;5984893;24;8420;-83
2022/07/26 08:14:50;;;;;;;;;;;;;;;;;;5984488;24;8286;-83
2022/07/26 08:17:16;;;;;;;;;;;;;;;;;;6031312;23;8667;-84
2022/07/26 08:19:41;;;;;;;;;;;;;;;;;;5983990;24;7076;-81
2022/07/26 08:22:07;;;;;;;;;;;;;;;;;;5984747;24;8380;-81
2022/07/26 08:24:33;;;;;;;;;;;;;;;;;;5984034;24;7147;-84
2022/07/26 08:26:59;;;;;;;;;;;;;;;;;;5984338;24;8300;-84
2022/07/26 08:29:24;;;;;;;;;;;;;;;;;;5984319;24;8478;-84
2022/07/26 08:31:51;;;;;;;;;;;;;;;;;;6031192;23;7324;-86
2022/07/26 08:34:17;;;;;;;;;;;;;;;;;;5984254;24;7043;-84
2022/07/26 08:36:44;;;;;;;;;;;;;;;;;;5985666;24;7128;-81
2022/07/26 08:39:09;;;;;;;;;;;;;;;;;;5984753;23;7036;-80
2022/07/26 08:41:35;;;;;;;;;;;;;;;;;;5983975;23;7023;-80
2022/07/26 08:44:09;;;;;;;;;;;;;;;;;;5983851;23;6979;-79
2022/07/26 08:46:36;;;;;;;;;;;;;;;;;;5984621;23;7214;-80
2022/07/26 08:49:01;;;;;;;;;;;;;;;;;;5983581;23;8531;-79
2022/07/26 08:51:27;;;;;;;;;;;;;;;;;;5984149;23;6985;-79
2022/07/26 08:53:53;;;;;;;;;;;;;;;;;;5983337;23;7128;-84
2022/07/26 08:56:19;;;;;;;;;;;;;;;;;;5984982;23;6902;-84
2022/07/26 08:58:44;;;;;;;;;;;;;;;;;;5984213;23;8398;-84
2022/07/26 09:01:11;;;;;;;;;;;;;;;;;;5984323;23;8401;-85
2022/07/26 09:03:37;;;;;;;;;;;;;;;;;;5983686;23;7163;-84
2022/07/26 09:06:14;;;;;;;;;;;;;;;;;;5983754;23;8465;-83
2022/07/26 09:08:39;;;;;;;;;;;;;;;;;;5983894;23;7029;-85
2022/07/26 09:11:34;;;;;;;;;;;;;;;;;;5984046;23;8379;-84
2022/07/26 09:14:02;;;;;;;;;;;;;;;;;;5966286;24;7291;-84
2022/07/26 09:16:28;;;;;;;;;;;;;;;;;;5982729;23;8405;-84
2022/07/26 09:18:54;;;;;;;;;;;;;;;;;;5983147;23;6821;-83
2022/07/26 09:21:29;;;;;;;;;;;;;;;;;;5983856;23;8524;-83
2022/07/26 09:23:55;;;;;;;;;;;;;;;;;;6006752;23;7508;-83
2022/07/26 09:26:20;;;;;;;;;;;;;;;;;;5984676;23;7134;-83
2022/07/26 09:29:00;;;;;;;;;;;;;;;;;;5983846;23;7197;-84
2022/07/26 09:31:25;;;;;;;;;;;;;;;;;;6007239;23;8417;-82
2022/07/26 09:33:51;;;;;;;;;;;;;;;;;;5983675;23;7147;-84
2022/07/26 09:36:17;;;;;;;;;;;;;;;;;;5984523;23;8467;-84
2022/07/26 09:38:45;;;;;;;;;;;;;;;;;;5985534;23;7143;-83
2022/07/26 09:41:17;;;;;;;;;;;;;;;;;;5986469;23;8415;-84
2022/07/26 09:43:42;;;;;;;;;;;;;;;;;;6008664;23;8586;-81
2022/07/26 09:46:09;;;;;;;;;;;;;;;;;;5985277;23;7453;-84
2022/07/26 09:48:38;;;;;;;;;;;;;;;;;;5985455;23;8307;-84
2022/07/26 09:51:07;;;;;;;;;;;;;;;;;;5986174;23;7053;-84
2022/07/26 09:53:40;;;;;;;;;;;;;;;;;;6031482;23;8390;-82
2022/07/26 09:56:07;;;;;;;;;;;;;;;;;;5985143;23;8406;-83
2022/07/26 09:58:34;;;;;;;;;;;;;;;;;;5984934;23;7231;-84
2022/07/26 10:01:00;;;;;;;;;;;;;;;;;;5985266;23;7168;-84
2022/07/26 10:03:25;;;;;;;;;;;;;;;;;;6032912;23;7192;-84
2022/07/26 10:05:51;;;;;;;;;;;;;;;;;;5986357;23;8459;-83
2022/07/26 10:08:18;;;;;;;;;;;;;;;;;;5985000;23;8715;-83
2022/07/26 10:10:54;;;;;;;;;;;;;;;;;;5985191;23;7012;-84
2022/07/26 10:13:21;;;;;;;;;;;;;;;;;;5985322;24;8732;-83
2022/07/26 10:15:49;;;;;;;;;;;;;;;;;;5983229;23;8391;-83
2022/07/26 10:18:33;;;;;;;;;;;;;;;;;;5983750;23;7056;-85
2022/07/26 10:20:58;;;;;;;;;;;;;;;;;;6008466;23;8276;-84
2022/07/26 10:23:44;;;;;;;;;;;;;;;;;;5985019;24;8839;-80
2022/07/26 10:26:28;;;;;;;;;;;;;;;;;;5984793;23;7175;-76
2022/07/26 10:28:54;;;;;;;;;;;;;;;;;;6008421;23;8722;-84
2022/07/26 10:31:19;;;;;;;;;;;;;;;;;;5984305;23;8631;-85
2022/07/26 10:33:49;;;;;;;;;;;;;;;;;;6009553;23;7413;-85
2022/07/26 10:36:30;;;;;;;;;;;;;;;;;;5985469;23;8453;-84
2022/07/26 10:38:58;;;;;;;;;;;;;;;;;;5984829;24;7052;-84
2022/07/26 10:41:50;;;;;;;;;;;;;;;;;;6009054;23;7155;-83
2022/07/26 10:44:18;;;;;;;;;;;;;;;;;;5980081;24;7240;-82
2022/07/26 10:46:54;;;;;;;;;;;;;;;;;;5984774;23;7128;-85
2022/07/26 10:49:19;;;;;;;;;;;;;;;;;;6008177;23;7409;-86
2022/07/26 10:51:45;;;;;;;;;;;;;;;;;;5984801;23;9235;-84
2022/07/26 10:54:11;;;;;;;;;;;;;;;;;;5984867;23;7167;-86
2022/07/26 10:56:37;;;;;;;;;;;;;;;;;;5984834;23;7871;-85
2022/07/26 10:59:04;;;;;;;;;;;;;;;;;;5984770;23;6983;-85
2022/07/26 11:01:40;;;;;;;;;;;;;;;;;;5985075;23;7139;-84
2022/07/26 11:04:26;;;;;;;;;;;;;;;;;;6032195;23;8864;-85
2022/07/26 11:06:52;;;;;;;;;;;;;;;;;;5984257;24;8891;-85
2022/07/26 11:09:18;;;;;;;;;;;;;;;;;;5984683;23;7042;-84
2022/07/26 11:11:44;;;;;;;;;;;;;;;;;;5983467;23;8529;-83
2022/07/26 11:14:12;;;;;;;;;;;;;;;;;;5983356;23;8516;-84
2022/07/26 11:16:43;;;;;;;;;;;;;;;;;;5985179;23;7167;-84
2022/07/26 11:19:16;;;;;;;;;;;;;;;;;;5985084;24;8633;-82
2022/07/26 11:21:43;;;;;;;;;;;;;;;;;;5984670;23;8595;-84
2022/07/26 11:24:09;;;;;;;;;;;;;;;;;;5984857;23;7059;-84
2022/07/26 11:26:45;;;;;;;;;;;;;;;;;;5984676;23;8376;-83
2022/07/26 11:29:12;;;;;;;;;;;;;;;;;;5985027;24;7158;-85
2022/07/26 11:31:42;;;;;;;;;;;;;;;;;;5985186;24;8622;-83
2022/07/26 11:34:16;;;;;;;;;;;;;;;;;;5984319;24;8069;-84
2022/07/26 11:36:44;;;;;;;;;;;;;;;;;;6007987;23;8410;-85
2022/07/26 11:39:42;;;;;;;;;;;;;;;;;;5985267;23;7382;-86
2022/07/26 11:42:13;;;;;;;;;;;;;;;;;;5938812;24;7100;-83
2022/07/26 11:44:44;;;;;;;;;;;;;;;;;;6031604;23;9140;-85
2022/07/26 11:47:21;;;;;;;;;;;;;;;;;;5984852;23;8397;-85
2022/07/26 11:49:47;;;;;;;;;;;;;;;;;;6031772;23;8443;-85
2022/07/26 11:52:14;;;;;;;;;;;;;;;;;;5984720;23;8580;-86
2022/07/26 11:54:45;;;;;;;;;;;;;;;;;;5984657;23;9247;-85
2022/07/26 11:57:11;;;;;;;;;;;;;;;;;;5984174;23;7062;-84
2022/07/26 11:59:37;;;;;;;;;;;;;;;;;;5984933;23;7746;-87
2022/07/26 12:02:05;;;;;;;;;;;;;;;;;;5984283;23;8603;-84
2022/07/26 12:04:33;;;;;;;;;;;;;;;;;;6031552;23;8421;-84
2022/07/26 12:06:59;;;;;;;;;;;;;;;;;;6031670;23;8424;-85
2022/07/26 12:09:29;;;;;;;;;;;;;;;;;;5984852;23;8540;-85
2022/07/26 12:11:55;;;;;;;;;;;;;;;;;;5984211;23;7614;-85
2022/07/26 12:14:28;;;;;;;;;;;;;;;;;;5984622;23;8416;-85
2022/07/26 12:16:54;;;;;;;;;;;;;;;;;;6032125;23;8443;-85
2022/07/26 12:19:19;;;;;;;;;;;;;;;;;;5984008;23;8373;-85
2022/07/26 12:21:47;;;;;;;;;;;;;;;;;;5984747;24;8482;-85
2022/07/26 12:24:32;;;;;;;;;;;;;;;;;;5984677;23;8831;-85
2022/07/26 12:27:06;;;;;;;;;;;;;;;;;;6008646;23;7187;-85
2022/07/26 12:29:35;;;;;;;;;;;;;;;;;;5984333;23;8499;-84
2022/07/26 12:32:02;;;;;;;;;;;;;;;;;;6008290;23;9230;-86
2022/07/26 12:34:28;;;;;;;;;;;;;;;;;;5983988;23;7168;-85
2022/07/26 12:36:53;;;;;;;;;;;;;;;;;;5983898;23;8406;-85
2022/07/26 12:39:20;;;;;;;;;;;;;;;;;;5984481;23;7137;-86
2022/07/26 12:41:49;;;;;;;;;;;;;;;;;;5984748;23;7059;-86
2022/07/26 12:44:16;;;;;;;;;;;;;;;;;;5982141;23;7166;-83
2022/07/26 12:46:46;;;;;;;;;;;;;;;;;;5981232;24;8466;-86
2022/07/26 12:49:12;;;;;;;;;;;;;;;;;;5979769;24;7183;-80
2022/07/26 12:51:37;;;;;;;;;;;;;;;;;;5981087;24;7098;-83
2022/07/26 12:54:05;;;;;;;;;;;;;;;;;;5982701;24;8699;-83
2022/07/26 12:56:31;;;;;;;;;;;;;;;;;;5982425;24;9116;-85
2022/07/26 12:59:02;;;;;;;;;;;;;;;;;;5982396;23;7017;-85
2022/07/26 13:01:30;;;;;;;;;;;;;;;;;;5981305;23;8447;-86
2022/07/26 13:03:55;;;;;;;;;;;;;;;;;;5981777;23;8320;-86
2022/07/26 13:06:21;;;;;;;;;;;;;;;;;;5982389;23;8469;-83
2022/07/26 13:08:46;;;;;;;;;;;;;;;;;;5983212;23;8334;-82
2022/07/26 13:11:12;;;;;;;;;;;;;;;;;;5982980;24;8387;-84
2022/07/26 13:13:37;;;;;;;;;;;;;;;;;;5984612;23;8422;-86
2022/07/26 13:16:03;;;;;;;;;;;;;;;;;;5985702;23;7286;-83
2022/07/26 13:18:28;;;;;;;;;;;;;;;;;;5983542;23;7002;-83
2022/07/26 13:20:55;;;;;;;;;;;;;;;;;;5984151;23;8719;-85
2022/07/26 13:23:20;;;;;;;;;;;;;;;;;;5984522;23;7166;-80
2022/07/26 13:25:46;;;;;;;;;;;;;;;;;;5985143;23;8758;-85
2022/07/26 13:28:11;;;;;;;;;;;;;;;;;;5985199;23;8517;-84
2022/07/26 13:30:39;;;;;;;;;;;;;;;;;;5985195;23;7017;-86
2022/07/26 13:33:05;;;;;;;;;;;;;;;;;;5984395;23;7121;-85
2022/07/26 13:35:31;;;;;;;;;;;;;;;;;;5992257;23;7014;-79
2022/07/26 13:37:56;;;;;;;;;;;;;;;;;;5989722;23;7055;-86
2022/07/26 13:40:21;;;;;;;;;;;;;;;;;;5988850;23;7138;-85
2022/07/26 13:42:48;;;;;;;;;;;;;;;;;;5985638;23;8471;-84
2022/07/26 13:45:14;;;;;;;;;;;;;;;;;;5984865;24;7245;-83
2022/07/26 13:47:40;;;;;;;;;;;;;;;;;;5984571;24;8354;-86
2022/07/26 13:50:06;;;;;;;;;;;;;;;;;;5988167;24;6987;-76
2022/07/26 13:52:32;;;;;;;;;;;;;;;;;;6043095;23;7251;-75
2022/07/26 13:54:57;;;;;;;;;;;;;;;;;;5995772;24;7424;-86
2022/07/26 13:57:23;;;;;;;;;;;;;;;;;;5985787;24;8392;-85
2022/07/26 13:59:48;;;;;;;;;;;;;;;;;;5988827;24;8525;-78
2022/07/26 14:02:14;;;;;;;;;;;;;;;;;;5987099;24;7138;-75
2022/07/26 14:04:39;;;;;;;;;;;;;;;;;;5983972;24;8376;-78
2022/07/26 14:07:05;;;;;;;;;;;;;;;;;;5984532;24;8388;-79
2022/07/26 14:09:30;;;;;;;;;;;;;;;;;;5994923;24;8488;-77
2022/07/26 14:11:56;;;;;;;;;;;;;;;;;;5996146;24;7430;-77
2022/07/26 14:14:22;;;;;;;;;;;;;;;;;;5994718;24;8486;-78
2022/07/26 14:16:47;;;;;;;;;;;;;;;;;;5995904;24;8999;-77
2022/07/26 14:19:13;;;;;;;;;;;;;;;;;;5983365;24;8407;-77
2022/07/26 14:21:39;;;;;;;;;;;;;;;;;;5983281;24;8437;-77
2022/07/26 14:24:05;;;;;;;;;;;;;;;;;;5982882;24;7174;-77
2022/07/26 14:26:30;;;;;;;;;;;;;;;;;;6031408;23;7697;-87
2022/07/26 14:28:56;;;;;;;;;;;;;;;;;;5984344;24;8946;-86
2022/07/26 14:31:21;;;;;;;;;;;;;;;;;;5984619;24;7040;-87
2022/07/26 14:33:47;;;;;;;;;;;;;;;;;;5984694;24;7194;-87
2022/07/26 14:36:13;;;;;;;;;;;;;;;;;;5983907;24;8354;-86
2022/07/26 14:38:40;;;;;;;;;;;;;;;;;;5984284;24;8632;-86
2022/07/26 14:41:06;;;;;;;;;;;;;;;;;;5985072;24;7266;-86
2022/07/26 14:43:31;;;;;;;;;;;;;;;;;;5986056;24;7424;-86
2022/07/26 14:45:57;;;;;;;;;;;;;;;;;;5986673;24;7949;-85
2022/07/26 14:48:22;;;;;;;;;;;;;;;;;;5985567;24;7029;-85
2022/07/26 14:50:47;;;;;;;;;;;;;;;;;;5987167;24;7117;-82
2022/07/26 14:53:14;;;;;;;;;;;;;;;;;;5984752;24;8361;-86
2022/07/26 14:55:40;;;;;;;;;;;;;;;;;;5983603;24;7041;-85
2022/07/26 14:58:06;;;;;;;;;;;;;;;;;;6007282;23;8647;-86
2022/07/26 15:00:32;;;;;;;;;;;;;;;;;;5984349;24;8480;-87
2022/07/26 15:02:57;;;;;;;;;;;;;;;;;;5983235;24;8716;-86
2022/07/26 15:05:24;;;;;;;;;;;;;;;;;;5983551;24;8378;-86
2022/07/26 15:07:50;;;;;;;;;;;;;;;;;;5983572;24;8440;-86
2022/07/26 15:10:16;;;;;;;;;;;;;;;;;;5983773;24;7218;-86
2022/07/26 15:12:42;;;;;;;;;;;;;;;;;;5983090;24;7084;-86
2022/07/26 15:15:09;;;;;;;;;;;;;;;;;;5983179;24;8424;-88
2022/07/26 15:17:35;;;;;;;;;;;;;;;;;;6030344;23;8438;-87
2022/07/26 15:20:00;;;;;;;;;;;;;;;;;;5980718;24;7399;-87
2022/07/26 15:22:26;;;;;;;;;;;;;;;;;;5980940;24;7036;-85
2022/07/26 15:24:51;;;;;;;;;;;;;;;;;;5982965;24;8806;-86
2022/07/26 15:27:17;;;;;;;;;;;;;;;;;;5983048;24;9492;-86
2022/07/26 15:29:42;;;;;;;;;;;;;;;;;;5983551;24;8470;-85
2022/07/26 15:32:08;;;;;;;;;;;;;;;;;;5982309;24;8768;-87
2022/07/26 15:34:33;;;;;;;;;;;;;;;;;;5983058;24;7037;-84
2022/07/26 15:36:59;;;;;;;;;;;;;;;;;;5984722;24;7309;-86
2022/07/26 15:39:25;;;;;;;;;;;;;;;;;;5984773;24;8741;-86
2022/07/26 15:41:50;;;;;;;;;;;;;;;;;;5984803;24;8395;-87
2022/07/26 15:44:17;;;;;;;;;;;;;;;;;;5984455;24;8407;-87
2022/07/26 15:46:44;;;;;;;;;;;;;;;;;;5985385;24;8512;-87
2022/07/26 15:49:12;;;;;;;;;;;;;;;;;;5984382;23;7573;-88
2022/07/26 15:51:37;;;;;;;;;;;;;;;;;;5984060;24;8527;-86
2022/07/26 15:54:03;;;;;;;;;;;;;;;;;;5984155;24;8403;-84
2022/07/26 15:56:29;;;;;;;;;;;;;;;;;;5984366;24;7586;-86
2022/07/26 15:58:55;;;;;;;;;;;;;;;;;;5984094;24;7139;-85
2022/07/26 16:01:20;;;;;;;;;;;;;;;;;;5984497;24;8642;-86
2022/07/26 16:03:46;;;;;;;;;;;;;;;;;;5984597;24;7128;-85
2022/07/26 16:06:12;;;;;;;;;;;;;;;;;;5984598;23;8401;-85
2022/07/26 16:08:38;;;;;;;;;;;;;;;;;;5984312;23;8785;-86
2022/07/26 16:11:03;;;;;;;;;;;;;;;;;;6031462;23;8564;-83
2022/07/26 16:13:29;;;;;;;;;;;;;;;;;;5984168;24;7129;-85
2022/07/26 16:15:55;;;;;;;;;;;;;;;;;;6009311;23;7136;-85
2022/07/26 16:18:20;;;;;;;;;;;;;;;;;;5984256;23;8453;-86
2022/07/26 16:20:46;;;;;;;;;;;;;;;;;;5984422;23;7028;-86
2022/07/26 16:23:13;;;;;;;;;;;;;;;;;;6031112;23;7137;-85
2022/07/26 16:25:39;;;;;;;;;;;;;;;;;;5984234;24;8415;-86
2022/07/26 16:28:04;;;;;;;;;;;;;;;;;;6007800;23;8360;-85
2022/07/26 16:30:30;;;;;;;;;;;;;;;;;;5984492;23;8411;-85
2022/07/26 16:32:55;;;;;;;;;;;;;;;;;;5984273;23;8477;-85
2022/07/26 16:35:21;;;;;;;;;;;;;;;;;;6031571;23;7101;-85
2022/07/26 16:37:48;;;;;;;;;;;;;;;;;;6007528;23;8350;-86
2022/07/26 16:40:13;;;;;;;;;;;;;;;;;;5988708;23;8301;-86
2022/07/26 16:42:39;;;;;;;;;;;;;;;;;;5993408;23;8717;-83
2022/07/26 16:45:05;;;;;;;;;;;;;;;;;;6035361;23;8407;-77
2022/07/26 16:47:31;;;;;;;;;;;;;;;;;;6038576;23;8563;-79
2022/07/26 16:49:57;;;;;;;;;;;;;;;;;;5995626;24;8391;-81
2022/07/26 16:52:22;;;;;;;;;;;;;;;;;;5994440;24;6995;-86
2022/07/26 16:54:48;;;;;;;;;;;;;;;;;;5983084;23;8435;-84
2022/07/26 16:57:13;;;;;;;;;;;;;;;;;;5982346;23;8803;-87
2022/07/26 16:59:38;;;;;;;;;;;;;;;;;;5982506;23;9399;-87